Time;durP1;ratioP1;P1;durP2;ratioP2;P2;SDS_P1;SDS_P2;PMS_P1;PMS_P2;Temp;Humidity;BMP_temperature;BMP_pressure;BME280_temperature;BME280_humidity;BME280_pressure;Samples;Min_cycle;Max_cycle;Signal;HPM_P1;HPM_P2
2021/04/04 00:02:15;;;;;;;4.37;3.97;;;1.70;25.90;;;;;;5078871;28;20286;-74
2021/04/04 00:04:41;;;;;;;5.03;4.63;;;1.70;26.00;;;;;;5075809;28;20539;-74
2021/04/04 00:07:06;;;;;;;4.90;4.50;;;1.60;25.80;;;;;;5076504;28;20207;-75
2021/04/04 00:09:32;;;;;;;3.70;3.40;;;1.60;26.20;;;;;;5074160;28;20190;-74
2021/04/04 00:11:57;;;;;;;5.70;4.40;;;1.50;26.10;;;;;;5074546;28;20169;-73
2021/04/04 00:14:23;;;;;;;5.17;4.73;;;1.50;26.10;;;;;;5074631;28;20175;-73
2021/04/04 00:16:48;;;;;;;5.40;4.90;;;1.50;26.40;;;;;;5074421;28;20170;-75
2021/04/04 00:19:14;;;;;;;8.13;5.50;;;1.50;26.10;;;;;;5072463;28;20197;-74
2021/04/04 00:21:40;;;;;;;9.07;5.27;;;1.50;26.10;;;;;;5073912;28;20206;-75
2021/04/04 00:24:07;;;;;;;10.63;5.47;;;1.50;26.10;;;;;;5072179;28;20333;-74
2021/04/04 00:26:33;;;;;;;10.52;5.38;;;1.60;26.10;;;;;;5073331;28;20198;-74
2021/04/04 00:28:59;;;;;;;6.82;5.90;;;1.50;26.10;;;;;;5071582;28;20200;-74
2021/04/04 00:31:25;;;;;;;5.60;5.00;;;1.40;26.10;;;;;;5072701;28;20170;-74
2021/04/04 00:33:51;;;;;;;5.67;5.10;;;;;;;;;;5071787;28;20550;-74
2021/04/04 00:36:16;;;;;;;6.03;4.47;;;1.40;25.60;;;;;;5072959;28;20190;-74
2021/04/04 00:38:42;;;;;;;6.13;5.53;;;1.40;26.10;;;;;;5071388;28;20472;-73
2021/04/04 00:41:07;;;;;;;5.63;5.13;;;1.50;26.10;;;;;;5072252;28;20708;-74
2021/04/04 00:43:33;;;;;;;5.50;4.43;;;1.40;26.10;;;;;;5072492;28;20686;-73
2021/04/04 00:45:59;;;;;;;5.10;4.60;;;;;;;;;;5071168;28;20252;-73
2021/04/04 00:48:25;;;;;;;6.50;4.90;;;1.30;25.60;;;;;;5072493;28;20178;-73
2021/04/04 00:50:50;;;;;;;4.63;4.23;;;1.40;26.60;;;;;;5072215;28;20171;-73
2021/04/04 00:53:16;;;;;;;7.47;4.90;;;1.30;26.50;;;;;;5072541;28;20408;-73
2021/04/04 00:55:42;;;;;;;4.83;4.43;;;1.40;26.10;;;;;;5072532;28;20265;-73
2021/04/04 00:58:07;;;;;;;5.97;4.67;;;1.40;26.10;;;;;;5070865;28;20170;-73
2021/04/04 01:00:34;;;;;;;5.07;3.97;;;1.40;26.10;;;;;;5071569;28;20866;-73
2021/04/04 01:03:00;;;;;;;6.90;4.47;;;1.40;26.10;;;;;;5072254;28;20549;-74
2021/04/04 01:05:32;;;;;;;6.20;4.53;;;1.50;26.10;;;;;;5069967;28;20199;-74
2021/04/04 01:07:58;;;;;;;7.68;5.78;;;1.40;26.10;;;;;;5071098;28;20933;-74
2021/04/04 01:10:29;;;;;;;5.13;4.00;;;1.40;26.10;;;;;;5070011;28;20288;-74
2021/04/04 01:13:07;;;;;;;4.80;4.35;;;1.40;26.10;;;;;;5072004;28;20170;-72
2021/04/04 01:15:58;;;;;;;4.97;4.50;;;1.40;26.10;;;;;;5072147;28;20231;-73
2021/04/04 01:18:33;;;;;;;6.70;4.95;;;1.40;26.10;;;;;;5066707;28;20199;-74
2021/04/04 01:21:10;;;;;;;5.65;4.60;;;1.40;26.10;;;;;;5070344;28;20227;-74
2021/04/04 01:24:00;;;;;;;5.13;4.65;;;1.30;26.10;;;;;;5070531;28;20262;-73
2021/04/04 01:26:43;;;;;;;6.18;5.18;;;1.30;26.10;;;;;;5071832;28;20202;-73
2021/04/04 01:29:10;;;;;;;7.53;4.32;;;1.20;26.20;;;;;;5070962;28;20263;-73
2021/04/04 01:31:36;;;;;;;7.43;5.35;;;1.20;26.40;;;;;;5071516;28;20166;-74
2021/04/04 01:34:04;;;;;;;4.93;4.47;;;1.10;26.40;;;;;;5071455;28;20581;-72
2021/04/04 01:36:31;;;;;;;4.60;4.20;;;1.20;26.60;;;;;;5071327;28;20224;-73
2021/04/04 01:39:00;;;;;;;9.52;4.60;;;1.20;26.70;;;;;;5069081;28;20237;-73
2021/04/04 01:41:46;;;;;;;8.60;4.70;;;1.10;26.80;;;;;;5070093;28;20206;-72
2021/04/04 01:44:21;;;;;;;5.07;4.25;;;1.10;27.00;;;;;;5070754;28;20198;-73
2021/04/04 01:46:47;;;;;;;4.22;3.92;;;1.10;27.10;;;;;;5069771;28;20217;-73
2021/04/04 01:49:15;;;;;;;5.05;4.55;;;1.10;26.90;;;;;;5070640;28;20192;-72
2021/04/04 01:51:43;;;;;;;6.82;4.63;;;1.10;26.80;;;;;;5071214;28;20170;-73
2021/04/04 01:54:09;;;;;;;4.65;4.25;;;1.10;26.90;;;;;;5071086;28;20261;-73
2021/04/04 01:56:35;;;;;;;3.67;3.38;;;1.10;26.90;;;;;;5070021;28;20670;-73
2021/04/04 01:59:02;;;;;;;5.38;4.53;;;1.10;27.10;;;;;;5068972;28;20621;-73
2021/04/04 02:01:30;;;;;;;6.55;5.00;;;1.00;27.00;;;;;;5070945;28;20170;-72
2021/04/04 02:04:07;;;;;;;6.03;4.03;;;1.00;27.00;;;;;;5070901;28;20226;-72
2021/04/04 02:06:37;;;;;;;4.60;4.20;;;1.00;27.00;;;;;;5069528;28;20669;-72
2021/04/04 02:09:08;;;;;;;5.03;3.55;;;1.00;27.00;;;;;;5068820;28;20637;-73
2021/04/04 02:11:35;;;;;;;4.60;4.18;;;1.00;26.80;;;;;;5070830;28;20170;-72
2021/04/04 02:14:05;;;;;;;4.05;3.75;;;0.90;26.90;;;;;;5069752;28;20767;-73
2021/04/04 02:16:32;;;;;;;4.40;4.00;;;0.90;27.10;;;;;;5068993;28;20189;-73
2021/04/04 02:18:58;;;;;;;9.20;4.00;;;0.90;27.10;;;;;;5070203;28;20202;-72
2021/04/04 02:21:27;;;;;;;5.33;4.53;;;0.90;27.00;;;;;;5070764;28;20194;-73
2021/04/04 02:23:53;;;;;;;4.60;4.18;;;0.90;27.10;;;;;;5070775;28;20189;-72
2021/04/04 02:26:18;;;;;;;6.80;4.40;;;0.90;27.20;;;;;;5070644;28;20205;-74
2021/04/04 02:28:45;;;;;;;5.32;4.28;;;0.90;27.30;;;;;;5070364;28;20218;-73
2021/04/04 02:31:12;;;;;;;6.57;4.60;;;0.90;27.10;;;;;;5069415;28;20261;-72
2021/04/04 02:33:50;;;;;;;8.00;4.10;;;0.90;27.30;;;;;;5071155;28;20166;-72
2021/04/04 02:36:16;;;;;;;4.80;4.35;;;;;;;;;;5070984;28;20173;-72
2021/04/04 02:38:47;;;;;;;5.03;4.40;;;;;;;;;;5085245;22;20724;-71
2021/04/04 02:41:14;;;;;;;5.90;5.18;;;;;;;;;;5012006;28;20243;-72
2021/04/04 02:43:41;;;;;;;6.72;4.20;;;;;;;;;;5013163;28;20187;-73
2021/04/04 02:46:14;;;;;;;5.07;4.68;;;0.70;26.50;;;;;;5030860;28;20203;-72
2021/04/04 02:48:44;;;;;;;4.38;3.47;;;0.70;27.10;;;;;;5030720;28;20163;-73
2021/04/04 02:51:13;;;;;;;6.65;4.35;;;0.60;27.60;;;;;;5030783;28;20211;-73
2021/04/04 02:53:48;;;;;;;5.32;4.55;;;0.60;27.50;;;;;;5030682;28;20222;-72
2021/04/04 02:56:16;;;;;;;7.30;4.65;;;0.50;27.60;;;;;;5013164;28;20561;-73
2021/04/04 02:58:45;;;;;;;4.88;3.40;;;0.50;27.70;;;;;;5012749;28;20182;-73
2021/04/04 03:01:12;;;;;;;4.80;3.70;;;0.40;27.90;;;;;;5030494;28;20387;-73
2021/04/04 03:03:39;;;;;;;4.95;3.65;;;0.40;28.20;;;;;;5012950;28;20190;-73
2021/04/04 03:06:08;;;;;;;5.40;4.30;;;0.30;28.40;;;;;;5030524;28;20213;-72
2021/04/04 03:08:38;;;;;;;4.57;3.45;;;0.30;28.50;;;;;;5012909;28;20179;-73
2021/04/04 03:11:04;;;;;;;9.30;5.72;;;0.30;28.30;;;;;;5030056;28;20190;-72
2021/04/04 03:13:30;;;;;;;7.28;4.63;;;0.30;28.50;;;;;;5012731;28;20258;-73
2021/04/04 03:15:56;;;;;;;6.77;4.60;;;0.20;28.70;;;;;;5030416;28;20182;-72
2021/04/04 03:18:24;;;;;;;7.95;4.57;;;0.20;28.70;;;;;;5030499;28;20672;-72
2021/04/04 03:20:51;;;;;;;4.55;4.10;;;0.20;28.70;;;;;;5012131;28;20211;-73
2021/04/04 03:23:17;;;;;;;6.50;4.10;;;0.10;29.00;;;;;;5013068;28;20732;-71
2021/04/04 03:25:44;;;;;;;4.55;3.83;;;;;;;;;;5013660;28;20239;-71
2021/04/04 03:28:11;;;;;;;10.27;4.97;;;;;;;;;;5030806;28;20198;-72
2021/04/04 03:30:43;;;;;;;6.10;4.72;;;;;;;;;;5015625;28;20245;-71
2021/04/04 03:33:11;;;;;;;4.32;3.80;;;;;;;;;;5034000;28;20250;-71
2021/04/04 03:35:37;;;;;;;5.60;4.40;;;0.20;74.60;;;;;;5033922;28;20656;-72
2021/04/04 03:38:05;;;;;;;5.70;4.65;;;0.20;28.40;;;;;;5033964;28;20175;-73
2021/04/04 03:40:31;;;;;;;6.18;3.38;;;;;;;;;;5033708;28;20313;-71
2021/04/04 03:42:58;;;;;;;4.00;3.70;;;;;;;;;;5034350;28;20175;-72
2021/04/04 03:45:25;;;;;;;4.72;3.97;;;1.70;49.10;;;;;;5016224;28;20568;-72
2021/04/04 03:47:52;;;;;;;4.57;4.13;;;;;;;;;;5034009;28;20180;-71
2021/04/04 03:50:18;;;;;;;8.15;4.05;;;;;;;;;;5033159;28;20191;-71
2021/04/04 03:52:48;;;;;;;6.07;4.50;;;;;;;;;;5015964;28;20171;-70
2021/04/04 03:55:18;;;;;;;6.60;4.88;;;0.00;65.10;;;;;;5015689;28;20186;-70
2021/04/04 03:57:44;;;;;;;3.95;3.15;;;0.00;62.70;;;;;;5015740;28;20371;-72
2021/04/04 04:00:11;;;;;;;8.25;4.60;;;-0.10;30.50;;;;;;5032883;28;20585;-70
2021/04/04 04:02:38;;;;;;;6.10;3.72;;;0.00;29.10;;;;;;5015756;28;20202;-72
2021/04/04 04:05:05;;;;;;;6.60;4.45;;;-0.10;29.10;;;;;;5016171;28;20183;-72
2021/04/04 04:07:32;;;;;;;5.55;5.03;;;-0.10;29.10;;;;;;5033367;28;20188;-69
2021/04/04 04:10:00;;;;;;;6.90;4.47;;;-0.10;29.10;;;;;;5032625;28;20202;-71
2021/04/04 04:12:30;;;;;;;8.05;4.63;;;-0.10;29.10;;;;;;5033508;28;20262;-71
2021/04/04 04:14:57;;;;;;;4.70;3.83;;;-0.20;29.20;;;;;;5033314;28;20167;-71
2021/04/04 04:17:24;;;;;;;3.95;3.45;;;-0.20;29.30;;;;;;5033410;28;20281;-71
2021/04/04 04:19:51;;;;;;;5.03;4.13;;;-0.20;29.10;;;;;;5032449;28;20213;-71
2021/04/04 04:22:17;;;;;;;8.40;4.32;;;-0.20;29.10;;;;;;5033198;28;20245;-70
2021/04/04 04:24:46;;;;;;;4.57;3.97;;;-0.10;29.50;;;;;;5015508;28;20237;-71
2021/04/04 04:27:12;;;;;;;6.93;4.93;;;-0.10;29.30;;;;;;5033172;28;20211;-70
2021/04/04 04:29:39;;;;;;;7.22;4.47;;;-0.10;29.40;;;;;;5014530;28;20278;-70
2021/04/04 04:32:05;;;;;;;5.93;4.63;;;-0.20;29.40;;;;;;5015084;28;20262;-70
2021/04/04 04:34:32;;;;;;;9.40;5.05;;;-0.20;29.60;;;;;;5032853;28;20163;-71
2021/04/04 04:36:58;;;;;;;11.38;4.88;;;-0.20;29.70;;;;;;5014949;28;20183;-70
2021/04/04 04:39:25;;;;;;;6.03;4.95;;;-0.20;29.60;;;;;;5014060;28;20580;-70
2021/04/04 04:41:52;;;;;;;6.05;4.57;;;-0.20;29.90;;;;;;5032587;28;20302;-71
2021/04/04 04:44:26;;;;;;;5.20;4.57;;;-0.20;29.90;;;;;;5032529;28;20175;-71
2021/04/04 04:46:52;;;;;;;4.20;3.58;;;-0.20;29.70;;;;;;5014816;28;20208;-70
2021/04/04 04:49:18;;;;;;;15.23;4.07;;;-0.30;29.70;;;;;;5031882;28;20264;-70
2021/04/04 04:51:48;;;;;;;8.20;4.30;;;-0.20;30.00;;;;;;5014523;28;20266;-71
2021/04/04 04:54:14;;;;;;;5.32;4.82;;;-0.20;30.00;;;;;;5032265;28;20942;-70
2021/04/04 04:56:40;;;;;;;6.82;5.38;;;-0.10;30.00;;;;;;5032377;28;20652;-70
2021/04/04 04:59:08;;;;;;;6.93;4.00;;;;;;;;;;5031714;28;20219;-71
2021/04/04 05:01:41;;;;;;;4.78;4.25;;;-0.10;29.00;;;;;;5032242;28;20179;-71
2021/04/04 05:04:08;;;;;;;6.72;4.70;;;-0.10;29.40;;;;;;5032068;28;20221;-71
2021/04/04 05:06:33;;;;;;;10.20;3.95;;;-0.20;29.90;;;;;;5014405;28;20706;-71
2021/04/04 05:09:00;;;;;;;5.17;4.67;;;-0.20;30.00;;;;;;5031662;28;20199;-71
2021/04/04 05:11:26;;;;;;;9.80;4.43;;;-0.20;30.00;;;;;;5014123;28;20179;-71
2021/04/04 05:13:53;;;;;;;9.30;4.75;;;-0.20;30.20;;;;;;5014231;28;20190;-71
2021/04/04 05:16:19;;;;;;;5.20;3.78;;;-0.20;30.10;;;;;;5033236;28;20183;-72
2021/04/04 05:18:52;;;;;;;9.30;4.93;;;-0.20;30.20;;;;;;5033043;28;20182;-71
2021/04/04 05:21:39;;;;;;;5.10;4.22;;;-0.10;30.00;;;;;;5014321;28;20183;-71
2021/04/04 05:24:13;;;;;;;7.97;4.63;;;0.00;29.90;;;;;;5013793;28;20656;-71
2021/04/04 05:26:44;;;;;;;4.82;4.35;;;0.00;29.60;;;;;;5031909;28;20213;-71
2021/04/04 05:29:11;;;;;;;4.55;3.88;;;0.10;29.40;;;;;;5013227;28;20290;-71
2021/04/04 05:31:43;;;;;;;5.55;4.32;;;0.20;29.30;;;;;;5031404;28;20175;-71
2021/04/04 05:34:13;;;;;;;6.82;4.35;;;;;;;;;;5031627;28;20648;-71
2021/04/04 05:36:53;;;;;;;4.65;4.15;;;0.40;66.60;;;;;;5031910;28;20183;-71
2021/04/04 05:39:21;;;;;;;4.40;4.00;;;0.30;28.30;;;;;;5030868;28;20220;-71
2021/04/04 05:41:49;;;;;;;4.05;3.75;;;0.40;29.00;;;;;;5031470;28;20213;-71
2021/04/04 05:44:26;;;;;;;4.97;4.45;;;1.30;61.60;;;;;;5031546;28;20263;-71
2021/04/04 05:47:00;;;;;;;4.63;3.75;;;;;;;;;;5013780;28;20325;-71
2021/04/04 05:49:59;;;;;;;7.13;5.47;;;5.10;18.70;;;;;;5030704;28;20708;-71
2021/04/04 05:52:45;;;;;;;6.78;6.18;;;5.20;19.00;;;;;;5023398;28;20278;-71
2021/04/04 05:55:36;;;;;;;7.10;5.95;;;6.10;16.60;;;;;;5031623;28;20168;-71
2021/04/04 05:58:11;;;;;;;8.13;7.50;;;6.90;14.30;;;;;;5031141;28;20703;-71
2021/04/04 06:00:44;;;;;;;8.00;7.40;;;7.10;14.00;;;;;;5030666;28;20579;-71
2021/04/04 06:03:15;;;;;;;7.50;6.97;;;7.10;13.50;;;;;;5013392;28;20557;-71
2021/04/04 06:05:59;;;;;;;7.97;7.47;;;7.40;14.20;;;;;;5031128;28;20213;-71
2021/04/04 06:08:38;;;;;;;8.75;8.15;;;;;;;;;;5031153;28;20169;-71
2021/04/04 06:11:23;;;;;;;8.85;8.35;;;;;;;;;;5030394;28;20176;-71
2021/04/04 06:14:07;;;;;;;8.93;8.30;;;8.70;10.70;;;;;;5013467;28;20285;-72
2021/04/04 06:17:01;;;;;;;9.30;8.80;;;9.60;9.30;;;;;;5031205;28;20993;-71
2021/04/04 06:19:46;;;;;;;9.13;8.53;;;9.40;10.00;;;;;;5012974;28;20434;-71
2021/04/04 06:22:11;;;;;;;10.00;9.23;;;;;;;;;;5031100;28;20413;-72
2021/04/04 06:24:51;;;;;;;10.03;9.43;;;10.80;12.30;;;;;;5031166;28;20410;-71
2021/04/04 06:27:36;;;;;;;10.27;9.67;;;;;;;;;;5031049;28;20461;-73
2021/04/04 06:30:01;;;;;;;11.13;10.43;;;12.20;4.70;;;;;;5030457;28;20980;-72
2021/04/04 06:32:41;;;;;;;11.27;10.70;;;12.30;4.70;;;;;;5030880;28;20417;-72
2021/04/04 06:35:31;;;;;;;11.03;10.53;;;12.70;4.00;;;;;;5030948;28;20192;-73
2021/04/04 06:38:37;;;;;;;13.73;12.70;;;12.90;3.70;;;;;;5030747;28;20786;-71
2021/04/04 06:41:28;;;;;;;11.77;11.27;;;13.10;3.70;;;;;;5011435;28;20457;-73
2021/04/04 06:44:23;;;;;;;12.53;11.80;;;13.30;3.00;;;;;;5012249;28;20525;-72
2021/04/04 06:47:25;;;;;;;13.70;12.50;;;13.80;3.30;;;;;;5012900;28;20513;-72
2021/04/04 06:49:50;;;;;;;14.63;13.67;;;13.90;3.30;;;;;;5005924;28;20449;-71
2021/04/04 06:52:43;;;;;;;12.97;12.20;;;14.10;3.00;;;;;;5031003;28;20884;-71
2021/04/04 06:55:26;;;;;;;14.53;13.70;;;14.10;3.10;;;;;;5030578;28;20187;-70
2021/04/04 06:58:04;;;;;;;13.33;12.63;;;14.10;3.50;;;;;;5030571;28;20903;-70
2021/04/04 07:01:00;;;;;;;15.13;14.30;;;14.10;2.80;;;;;;5012182;28;20433;-71
2021/04/04 07:03:29;;;;;;;14.97;13.93;;;14.30;3.10;;;;;;5033085;28;20406;-70
2021/04/04 07:06:23;;;;;;;15.53;14.53;;;14.30;2.90;;;;;;5034714;28;20461;-71
2021/04/04 07:09:26;;;;;;;15.50;14.50;;;14.50;2.20;;;;;;5045837;28;20438;-72
2021/04/04 07:12:07;;;;;;;14.23;13.60;;;14.80;1.80;;;;;;5041579;28;20438;-69
2021/04/04 07:14:56;;;;;;;15.67;14.67;;;15.00;1.20;;;;;;5034751;28;20460;-70
2021/04/04 07:17:40;;;;;;;14.30;13.60;;;14.90;1.10;;;;;;5034433;28;20454;-70
2021/04/04 07:20:33;;;;;;;13.97;13.30;;;14.30;2.00;;;;;;5033555;28;20485;-69
2021/04/04 07:23:26;;;;;;;14.97;13.80;;;13.20;2.90;;;;;;5034074;28;20413;-72
2021/04/04 07:26:03;;;;;;;15.40;14.60;;;11.80;3.50;;;;;;5016148;28;20500;-69
2021/04/04 07:28:59;;;;;;;14.30;13.67;;;10.90;5.40;;;;;;5034148;28;20418;-69
2021/04/04 07:31:29;;;;;;;15.90;15.00;;;10.20;6.60;;;;;;5034158;28;20505;-70
2021/04/04 07:34:33;;;;;;;15.80;14.70;;;9.50;8.10;;;;;;5016581;28;20409;-70
2021/04/04 07:37:05;;;;;;;15.50;14.63;;;8.90;9.70;;;;;;4983371;28;20980;-73
2021/04/04 07:40:03;;;;;;;16.73;15.10;;;8.60;10.20;;;;;;5033212;28;20784;-71
2021/04/04 07:42:37;;;;;;;16.63;15.43;;;8.40;10.80;;;;;;4979524;28;20421;-72
2021/04/04 07:45:12;;;;;;;14.80;14.00;;;8.30;11.00;;;;;;5033857;28;20403;-71
2021/04/04 07:47:59;;;;;;;15.38;14.23;;;8.20;11.50;;;;;;5016173;28;20430;-70
2021/04/04 07:50:30;;;;;;;15.30;14.53;;;8.10;11.20;;;;;;5032885;28;20237;-71
2021/04/04 07:53:07;;;;;;;14.47;13.57;;;8.10;10.70;;;;;;5033575;28;20400;-71
2021/04/04 07:55:43;;;;;;;15.80;14.80;;;8.10;11.70;;;;;;5033488;28;20432;-71
2021/04/04 07:58:35;;;;;;;15.77;14.47;;;8.30;11.70;;;;;;5015893;28;20445;-70
2021/04/04 08:01:24;;;;;;;18.53;14.23;;;8.30;11.10;;;;;;5033106;28;20402;-71
2021/04/04 08:04:26;;;;;;;14.73;13.93;;;8.50;10.90;;;;;;5032218;28;20418;-70
2021/04/04 08:07:02;;;;;;;16.27;15.27;;;9.00;10.70;;;;;;4934627;28;20469;-70
2021/04/04 08:10:04;;;;;;;15.57;14.70;;;9.60;9.60;;;;;;5032832;28;20442;-71
2021/04/04 08:12:47;;;;;;;17.10;15.87;;;9.80;8.90;;;;;;5022269;28;20449;-71
2021/04/04 08:15:17;;;;;;;16.10;15.30;;;9.60;8.80;;;;;;5032857;28;20410;-72
2021/04/04 08:17:43;;;;;;;15.77;14.87;;;9.90;9.40;;;;;;5033316;28;20414;-70
2021/04/04 08:20:30;;;;;;;18.10;16.70;;;10.50;7.70;;;;;;5014861;28;20443;-71
2021/04/04 08:23:05;;;;;;;18.20;16.50;;;10.80;7.30;;;;;;5033103;28;20184;-71
2021/04/04 08:25:58;;;;;;;17.70;16.80;;;11.40;6.20;;;;;;5033130;28;20455;-70
2021/04/04 08:28:36;;;;;;;17.60;16.43;;;12.00;6.00;;;;;;5015343;28;21088;-71
2021/04/04 08:31:28;;;;;;;17.50;16.60;;;12.60;5.20;;;;;;5032464;28;20423;-71
2021/04/04 08:34:11;;;;;;;16.67;15.67;;;13.20;4.90;;;;;;5032725;28;20414;-70
2021/04/04 08:36:40;;;;;;;17.27;16.40;;;13.20;4.50;;;;;;5032794;28;20424;-71
2021/04/04 08:39:07;;;;;;;15.50;14.80;;;12.70;5.10;;;;;;5014757;28;20831;-71
2021/04/04 08:41:36;;;;;;;17.43;16.43;;;12.10;6.60;;;;;;5014971;28;20944;-71
2021/04/04 08:44:09;;;;;;;16.70;15.80;;;11.60;6.30;;;;;;5032605;28;20414;-72
2021/04/04 08:46:46;;;;;;;15.93;15.13;;;11.10;8.10;;;;;;5014668;28;20457;-72
2021/04/04 08:49:13;;;;;;;17.27;16.27;;;11.00;8.20;;;;;;5031988;28;20437;-71
2021/04/04 08:52:17;;;;;;;17.73;16.80;;;10.90;8.30;;;;;;5032482;28;20418;-71
2021/04/04 08:54:44;;;;;;;16.33;15.53;;;;;;;;;;5014765;28;20418;-72
2021/04/04 08:57:10;;;;;;;15.07;14.37;;;;;;;;;;5032543;28;20408;-71
2021/04/04 08:59:36;;;;;;;15.17;14.37;;;10.80;8.70;;;;;;5032451;28;20461;-72
2021/04/04 09:02:05;;;;;;;17.93;16.77;;;10.70;7.80;;;;;;5044411;28;20446;-71
2021/04/04 09:04:34;;;;;;;15.90;15.00;;;10.60;8.60;;;;;;5039679;28;20416;-71
2021/04/04 09:07:04;;;;;;;18.90;17.80;;;10.40;8.10;;;;;;5032906;28;20458;-71
2021/04/04 09:09:37;;;;;;;16.07;14.93;;;10.30;8.70;;;;;;5013983;28;20485;-70
2021/04/04 09:12:04;;;;;;;17.20;15.60;;;10.30;8.60;;;;;;5032135;28;20444;-71
2021/04/04 09:14:41;;;;;;;15.63;14.83;;;10.30;9.40;;;;;;5014654;28;20568;-72
2021/04/04 09:17:16;;;;;;;16.90;15.90;;;10.50;9.00;;;;;;5032181;28;20410;-71
2021/04/04 09:19:48;;;;;;;16.27;15.37;;;10.60;9.20;;;;;;5013821;28;20472;-71
2021/04/04 09:22:22;;;;;;;15.73;14.93;;;10.80;9.40;;;;;;5014150;28;20429;-72
2021/04/04 09:24:58;;;;;;;15.43;14.43;;;10.90;9.10;;;;;;5014707;28;20936;-71
2021/04/04 09:27:27;;;;;;;16.70;15.50;;;11.10;9.10;;;;;;5013358;28;20457;-71
2021/04/04 09:29:56;;;;;;;15.37;14.47;;;11.00;8.20;;;;;;5013194;28;20456;-70
2021/04/04 09:32:38;;;;;;;18.70;16.30;;;10.90;8.30;;;;;;5013739;28;20966;-71
2021/04/04 09:35:06;;;;;;;16.67;15.77;;;10.90;8.70;;;;;;5031616;28;20413;-71
2021/04/04 09:37:33;;;;;;;16.10;15.30;;;10.90;8.40;;;;;;5031500;28;20411;-71
2021/04/04 09:39:59;;;;;;;14.50;13.90;;;10.90;8.00;;;;;;5013035;28;20490;-72
2021/04/04 09:42:32;;;;;;;15.27;14.47;;;10.90;8.40;;;;;;5031537;28;20915;-71
2021/04/04 09:45:24;;;;;;;16.57;15.60;;;10.90;9.00;;;;;;5031592;28;20775;-70
2021/04/04 09:47:51;;;;;;;16.27;15.43;;;10.90;8.20;;;;;;5031401;28;20449;-70
2021/04/04 09:50:25;;;;;;;16.23;15.40;;;10.90;7.20;;;;;;5030952;28;20461;-71
2021/04/04 09:52:53;;;;;;;16.37;15.47;;;10.90;7.20;;;;;;5031548;28;20409;-69
2021/04/04 09:55:20;;;;;;;16.20;15.23;;;10.90;7.60;;;;;;5013685;28;20479;-70
2021/04/04 09:57:47;;;;;;;15.50;14.60;;;11.00;8.00;;;;;;5013504;28;20414;-70
2021/04/04 10:00:17;;;;;;;17.40;16.40;;;11.00;7.00;;;;;;5012789;28;20812;-71
2021/04/04 10:02:43;;;;;;;16.67;15.53;;;11.10;5.70;;;;;;5013280;28;21004;-70
2021/04/04 10:05:09;;;;;;;16.70;15.43;;;11.10;6.60;;;;;;5013218;28;20426;-70
2021/04/04 10:07:35;;;;;;;17.40;16.20;;;11.20;6.00;;;;;;5031203;28;21001;-71
2021/04/04 10:10:03;;;;;;;15.53;14.83;;;11.30;6.80;;;;;;5031166;28;20430;-71
2021/04/04 10:12:29;;;;;;;16.30;14.93;;;11.40;5.60;;;;;;5030801;28;20198;-71
2021/04/04 10:15:08;;;;;;;15.00;14.40;;;11.50;5.30;;;;;;5031023;28;20505;-71
2021/04/04 10:17:34;;;;;;;15.63;14.93;;;11.50;4.60;;;;;;5031014;28;20197;-70
2021/04/04 10:20:03;;;;;;;15.63;14.77;;;11.50;5.10;;;;;;5030436;28;20452;-71
2021/04/04 10:22:48;;;;;;;16.30;15.57;;;11.70;4.10;;;;;;5030848;28;20413;-70
2021/04/04 10:25:15;;;;;;;14.00;13.50;;;11.50;3.80;;;;;;5031225;28;20738;-70
2021/04/04 10:27:40;;;;;;;16.33;15.40;;;11.40;3.20;;;;;;5013247;28;20476;-71
2021/04/04 10:30:14;;;;;;;15.30;14.50;;;11.30;4.30;;;;;;5030351;28;20932;-71
2021/04/04 10:32:44;;;;;;;15.37;14.67;;;11.40;4.30;;;;;;5031042;28;20894;-71
2021/04/04 10:35:11;;;;;;;15.10;14.50;;;11.40;3.90;;;;;;5031142;28;20414;-71
2021/04/04 10:37:37;;;;;;;16.30;15.60;;;11.60;4.30;;;;;;5030868;28;20424;-71
2021/04/04 10:40:10;;;;;;;15.57;14.97;;;11.60;1.80;;;;;;5030915;28;20450;-69
2021/04/04 10:42:37;;;;;;;15.87;15.07;;;11.60;1.80;;;;;;5031118;28;20425;-72
2021/04/04 10:45:13;;;;;;;16.00;15.20;;;11.40;2.00;;;;;;5031063;28;20700;-72
2021/04/04 10:47:45;;;;;;;17.37;16.37;;;11.50;2.80;;;;;;5030658;28;20426;-72
2021/04/04 10:50:16;;;;;;;21.10;19.83;;;11.60;2.60;;;;;;5030384;28;20433;-71
2021/04/04 10:52:43;;;;;;;17.43;16.13;;;11.60;1.80;;;;;;5032322;28;20416;-72
2021/04/04 10:55:11;;;;;;;16.67;15.93;;;11.80;2.70;;;;;;5038757;28;20414;-71
2021/04/04 10:57:38;;;;;;;16.10;15.40;;;11.90;2.00;;;;;;5038817;28;20536;-72
2021/04/04 11:00:06;;;;;;;15.33;14.73;;;12.00;2.20;;;;;;5030680;28;20426;-71
2021/04/04 11:02:32;;;;;;;17.07;16.20;;;12.00;1.50;;;;;;5013081;28;20438;-71
2021/04/04 11:04:58;;;;;;;17.43;16.33;;;12.00;2.10;;;;;;5012603;28;20432;-70
2021/04/04 11:07:23;;;;;;;16.07;15.27;;;12.10;2.10;;;;;;5030712;28;20490;-71
2021/04/04 11:09:49;;;;;;;16.00;15.27;;;12.20;1.10;;;;;;5030005;28;20462;-72
2021/04/04 11:12:15;;;;;;;15.93;15.13;;;12.20;1.00;;;;;;5013176;28;20584;-71
2021/04/04 11:14:44;;;;;;;16.00;15.30;;;12.20;1.00;;;;;;5030445;28;20260;-72
2021/04/04 11:17:13;;;;;;;16.07;15.33;;;11.90;1.30;;;;;;5012679;28;20553;-71
2021/04/04 11:19:45;;;;;;;16.87;16.03;;;12.10;2.10;;;;;;5012193;28;20473;-71
2021/04/04 11:22:14;;;;;;;15.63;15.03;;;12.20;1.00;;;;;;5030505;28;20913;-71
2021/04/04 11:24:54;;;;;;;16.70;15.70;;;12.20;1.70;;;;;;5030588;28;20638;-70
2021/04/04 11:27:40;;;;;;;15.93;15.33;;;12.20;1.00;;;;;;5012914;28;20463;-70
2021/04/04 11:30:07;;;;;;;16.20;15.50;;;12.00;1.00;;;;;;5012282;28;20458;-71
2021/04/04 11:32:33;;;;;;;16.80;15.90;;;11.80;1.00;;;;;;5030735;28;20903;-71
2021/04/04 11:35:03;;;;;;;15.83;15.13;;;11.80;1.00;;;;;;5030359;28;20463;-71
2021/04/04 11:37:28;;;;;;;15.60;15.00;;;11.70;1.00;;;;;;5030653;28;20187;-71
2021/04/04 11:40:13;;;;;;;16.87;15.47;;;11.70;1.30;;;;;;5029964;28;20527;-71
2021/04/04 11:42:39;;;;;;;16.50;15.70;;;11.70;1.00;;;;;;5012641;28;20184;-70
2021/04/04 11:45:05;;;;;;;16.13;15.43;;;11.70;1.00;;;;;;5030177;28;20777;-71
2021/04/04 11:47:31;;;;;;;16.00;15.40;;;11.80;1.10;;;;;;5030142;28;20456;-70
2021/04/04 11:49:57;;;;;;;17.93;16.90;;;12.10;1.30;;;;;;5030873;28;20454;-71
2021/04/04 11:52:22;;;;;;;18.27;16.53;;;12.30;1.00;;;;;;5015941;28;20203;-71
2021/04/04 11:54:50;;;;;;;16.17;15.57;;;12.30;1.00;;;;;;5015847;28;20451;-71
2021/04/04 11:57:20;;;;;;;18.00;16.70;;;12.40;1.00;;;;;;5033719;28;20261;-71
2021/04/04 11:59:49;;;;;;;16.60;15.80;;;12.50;1.00;;;;;;5032979;28;20505;-72
2021/04/04 12:02:17;;;;;;;16.90;16.20;;;12.50;1.10;;;;;;5033566;28;20777;-71
2021/04/04 12:04:48;;;;;;;18.47;17.57;;;12.40;1.00;;;;;;5033548;28;20414;-71
2021/04/04 12:07:18;;;;;;;16.60;15.80;;;12.30;1.00;;;;;;5033311;28;20864;-70
2021/04/04 12:09:45;;;;;;;17.20;16.00;;;12.20;1.00;;;;;;5032570;28;20445;-71
2021/04/04 12:12:12;;;;;;;18.27;16.90;;;12.30;1.00;;;;;;5033140;28;20512;-72
2021/04/04 12:14:52;;;;;;;17.07;16.17;;;12.30;1.00;;;;;;5033218;28;20421;-72
2021/04/04 12:17:19;;;;;;;17.50;16.70;;;12.40;1.00;;;;;;5033160;28;20456;-70
2021/04/04 12:19:45;;;;;;;18.03;17.23;;;12.30;1.00;;;;;;5032503;28;20434;-70
2021/04/04 12:22:13;;;;;;;17.10;16.20;;;12.40;1.00;;;;;;5033478;28;20445;-70
2021/04/04 12:24:45;;;;;;;17.10;16.27;;;12.50;1.00;;;;;;5033183;28;20417;-71
2021/04/04 12:27:12;;;;;;;16.80;16.10;;;12.50;1.00;;;;;;5015233;28;20857;-70
2021/04/04 12:29:52;;;;;;;15.80;15.10;;;12.40;1.00;;;;;;5032430;28;20804;-71
2021/04/04 12:32:25;;;;;;;16.70;15.90;;;12.30;1.00;;;;;;5033069;28;20416;-71
2021/04/04 12:35:03;;;;;;;17.37;16.30;;;12.30;1.00;;;;;;5032931;28;20410;-73
2021/04/04 12:37:33;;;;;;;17.90;17.10;;;12.30;1.00;;;;;;5032866;28;20416;-71
2021/04/04 12:40:01;;;;;;;16.73;16.13;;;12.40;1.00;;;;;;5032057;28;20458;-70
2021/04/04 12:42:30;;;;;;;17.53;16.53;;;12.50;1.00;;;;;;5032765;28;20943;-72
2021/04/04 12:44:56;;;;;;;17.37;16.60;;;12.50;1.00;;;;;;5032983;28;20503;-71
2021/04/04 12:47:24;;;;;;;16.97;16.10;;;12.50;1.00;;;;;;5014940;28;20553;-71
2021/04/04 12:50:06;;;;;;;15.90;15.30;;;12.70;1.00;;;;;;5017528;28;20204;-71
2021/04/04 12:52:52;;;;;;;17.00;16.30;;;12.80;1.00;;;;;;5015470;28;20914;-71
2021/04/04 12:55:31;;;;;;;24.60;22.20;;;12.50;1.00;;;;;;5032443;28;20449;-70
2021/04/04 12:58:03;;;;;;;23.97;22.50;;;12.30;1.00;;;;;;5032305;28;20993;-71
2021/04/04 13:00:31;;;;;;;20.53;19.33;;;12.20;1.00;;;;;;5013989;28;20536;-72
2021/04/04 13:03:07;;;;;;;20.57;19.47;;;12.20;1.00;;;;;;5032505;28;20406;-70
2021/04/04 13:05:52;;;;;;;25.20;23.67;;;12.30;1.00;;;;;;5014449;28;20429;-71
2021/04/04 13:08:27;;;;;;;23.80;22.40;;;12.50;1.00;;;;;;5032224;28;20424;-71
2021/04/04 13:10:56;;;;;;;18.23;17.40;;;12.50;1.00;;;;;;5013762;28;20443;-70
2021/04/04 13:13:24;;;;;;;17.70;17.00;;;12.60;1.00;;;;;;5031894;28;20462;-70
2021/04/04 13:15:50;;;;;;;17.13;16.43;;;12.80;1.00;;;;;;5031768;28;20429;-70
2021/04/04 13:18:39;;;;;;;17.47;16.67;;;12.80;1.00;;;;;;5031700;28;20904;-71
2021/04/04 13:21:27;;;;;;;17.80;16.93;;;13.00;1.00;;;;;;5018752;28;20272;-70